Time;durP1;ratioP1;P1;durP2;ratioP2;P2;SDS_P1;SDS_P2;PMS_P1;PMS_P2;Temp;Humidity;BMP_temperature;BMP_pressure;BME280_temperature;BME280_humidity;BME280_pressure;Samples;Min_cycle;Max_cycle;Signal;HPM_P1;HPM_P2
2023/06/09 00:00:26;;;;;;;6.60;5.27;;;;;;;17.78;100.00;100058.95;1445982;89;21771;-81
2023/06/09 00:02:52;;;;;;;9.77;4.83;;;;;;;17.76;100.00;100056.12;1446118;89;21415;-80
2023/06/09 00:05:20;;;;;;;15.53;7.30;;;;;;;17.77;100.00;100055.09;1452524;89;21365;-80
2023/06/09 00:07:52;;;;;;;8.30;5.47;;;;;;;17.78;100.00;100052.74;1447113;90;21363;-81
2023/06/09 00:10:18;;;;;;;9.57;6.27;;;;;;;17.77;100.00;100057.77;1442337;90;22451;-81
2023/06/09 00:12:47;;;;;;;9.67;5.97;;;;;;;17.77;100.00;100056.42;1449676;89;21475;-82
2023/06/09 00:15:14;;;;;;;7.00;5.33;;;;;;;17.75;100.00;100050.44;1438645;90;22056;-83
2023/06/09 00:17:41;;;;;;;8.17;6.47;;;;;;;17.73;100.00;100052.52;1447370;89;21563;-84
2023/06/09 00:20:09;;;;;;;7.93;5.47;;;;;;;17.70;100.00;100049.73;1440013;90;21401;-82
2023/06/09 00:22:42;;;;;;;10.57;5.57;;;;;;;17.68;100.00;100053.12;1449721;89;21534;-83
2023/06/09 00:25:06;;;;;;;6.80;6.10;;;;;;;17.65;100.00;100052.19;1438392;90;21476;-84
2023/06/09 00:27:33;;;;;;;9.47;6.23;;;;;;;17.64;100.00;100056.42;1447880;90;22517;-82
2023/06/09 00:29:59;;;;;;;15.37;6.00;;;;;;;17.65;100.00;100050.03;1449473;90;22406;-83
2023/06/09 00:32:27;;;;;;;15.60;6.60;;;;;;;17.63;100.00;100052.08;1442722;89;21482;-84
2023/06/09 00:34:53;;;;;;;5.67;5.17;;;;;;;17.63;100.00;100046.73;1444993;89;21386;-83
2023/06/09 00:37:19;;;;;;;10.53;6.07;;;;;;;17.63;100.00;100047.55;1444323;90;21474;-83
2023/06/09 00:39:48;;;;;;;7.03;5.47;;;;;;;17.64;100.00;100044.37;1441206;90;21438;-83
2023/06/09 00:42:14;;;;;;;9.00;5.73;;;;;;;17.67;100.00;100046.65;1445380;90;21401;-83
2023/06/09 00:44:40;;;;;;;9.70;4.97;;;;;;;17.67;100.00;100045.31;1417796;90;22318;-83
2023/06/09 00:47:07;;;;;;;8.13;5.47;;;;;;;17.68;100.00;100046.95;1433399;90;21401;-83
2023/06/09 00:49:36;;;;;;;11.67;5.63;;;;;;;17.69;100.00;100041.89;1447467;90;21444;-83
2023/06/09 00:52:04;;;;;;;10.70;5.93;;;;;;;17.65;100.00;100043.34;1445126;89;22391;-84
2023/06/09 00:54:30;;;;;;;10.80;5.60;;;;;;;17.60;100.00;100042.08;1444932;90;21460;-80
2023/06/09 00:56:57;;;;;;;7.87;5.57;;;;;;;17.59;100.00;100040.45;1441135;90;21536;-81
2023/06/09 00:59:25;;;;;;;8.20;5.90;;;;;;;17.60;100.00;100043.94;1451410;90;21453;-81
2023/06/09 01:01:52;;;;;;;7.17;5.77;;;;;;;17.66;100.00;100042.30;1446552;90;21401;-80
2023/06/09 01:04:19;;;;;;;7.30;5.50;;;;;;;17.70;100.00;100042.23;1445943;90;21312;-85
2023/06/09 01:07:00;;;;;;;7.17;6.10;;;;;;;17.72;100.00;100041.48;1451910;90;21526;-85
2023/06/09 01:09:54;;;;;;;10.40;5.23;;;;;;;17.67;100.00;100041.30;1441516;89;21578;-83
2023/06/09 01:12:35;;;;;;;8.63;5.93;;;;;;;17.61;100.00;100037.58;1442113;90;21445;-84
2023/06/09 01:15:07;;;;;;;;;;;;;;;17.60;100.00;100043.42;1441357;90;21453;-85
2023/06/09 01:17:37;;;;;;;13.53;6.60;;;;;;;17.56;100.00;100039.52;1455567;90;20608;-85
2023/06/09 01:20:07;;;;;;;9.75;5.75;;;;;;;17.54;100.00;100034.87;1451928;90;21437;-85
2023/06/09 01:22:55;;;;;;;8.68;6.25;;;;;;;17.50;100.00;100030.14;1440158;90;22377;-85
2023/06/09 01:25:37;;;;;;;8.17;6.03;;;;;;;17.45;100.00;100028.06;1447842;90;21473;-84
2023/06/09 01:28:14;;;;;;;11.30;5.70;;;;;;;17.40;100.00;100020.33;1443047;89;21453;-82
2023/06/09 01:30:43;;;;;;;9.30;5.77;;;;;;;17.37;100.00;100022.89;1442743;90;21534;-82
2023/06/09 01:33:14;;;;;;;16.83;6.40;;;;;;;17.35;100.00;100023.63;1447492;90;21482;-84
2023/06/09 01:35:41;;;;;;;9.03;5.33;;;;;;;17.31;100.00;100025.86;1446000;90;21562;-84
2023/06/09 01:38:10;;;;;;;8.60;6.30;;;;;;;17.25;100.00;100022.66;1440729;89;21445;-82
2023/06/09 01:40:36;;;;;;;11.47;5.80;;;;;;;17.23;100.00;100022.54;1447262;90;22289;-84
2023/06/09 01:43:15;;;;;;;9.37;5.97;;;;;;;17.19;100.00;100018.11;1439773;90;21304;-83
2023/06/09 01:45:42;;;;;;;10.37;6.33;;;;;;;17.16;100.00;100017.70;1445316;89;21490;-84
2023/06/09 01:48:14;;;;;;;7.37;5.37;;;;;;;17.12;100.00;100015.95;1450788;90;21386;-82
2023/06/09 01:51:04;;;;;;;6.57;5.40;;;;;;;17.07;100.00;100015.71;1439268;90;21452;-84
2023/06/09 01:53:37;;;;;;;8.40;5.30;;;;;;;17.02;100.00;100013.63;1434354;90;21423;-81
2023/06/09 01:56:17;;;;;;;7.43;5.87;;;;;;;16.98;100.00;100013.72;1442280;89;21387;-83
2023/06/09 01:58:47;;;;;;;14.95;6.20;;;;;;;16.97;100.00;100012.05;1440731;90;21549;-83
2023/06/09 02:01:19;;;;;;;8.38;5.08;;;;;;;16.96;100.00;100017.10;1438838;90;21413;-81
2023/06/09 02:06:36;;;;;;;9.50;5.17;;;;;;;16.89;100.00;100029.63;1412521;90;21353;-82
2023/06/09 02:09:02;;;;;;;9.47;4.83;;;;;;;16.84;100.00;100029.39;1426449;90;21412;-82
2023/06/09 02:11:28;;;;;;;12.73;5.17;;;;;;;16.80;100.00;100034.31;1412810;91;21393;-82
2023/06/09 02:13:56;;;;;;;9.30;5.40;;;;;;;16.76;100.00;100029.52;1426641;90;21436;-83
2023/06/09 02:16:24;;;;;;;10.60;6.17;;;;;;;16.69;100.00;100030.31;1409823;91;21335;-81
2023/06/09 02:18:50;;;;;;;9.57;5.50;;;;;;;16.66;100.00;100028.03;1432149;90;21521;-83
2023/06/09 02:21:17;;;;;;;9.23;5.37;;;;;;;16.64;100.00;100034.59;1420900;90;21856;-84
2023/06/09 02:23:43;;;;;;;8.07;5.73;;;;;;;16.58;100.00;100030.86;1430885;90;22566;-85
2023/06/09 02:26:09;;;;;;;12.57;5.97;;;;;;;16.57;100.00;100031.89;1423803;91;21453;-83
2023/06/09 02:28:36;;;;;;;8.30;6.33;;;;;;;16.55;100.00;100035.26;1428501;90;21356;-83
2023/06/09 02:31:03;;;;;;;8.17;5.67;;;;;;;16.56;100.00;100032.89;1422522;90;21377;-83
2023/06/09 02:33:29;;;;;;;10.90;4.90;;;;;;;16.59;100.00;100033.83;1420977;90;21401;-82
2023/06/09 02:35:57;;;;;;;13.07;5.77;;;;;;;16.58;100.00;100034.86;1427885;90;21436;-82
2023/06/09 02:38:24;;;;;;;8.70;5.10;;;;;;;16.62;100.00;100031.28;1427067;90;21431;-81
2023/06/09 02:40:50;;;;;;;16.97;5.47;;;;;;;16.68;100.00;100037.17;1426062;90;21541;-81
2023/06/09 02:43:17;;;;;;;7.07;5.40;;;;;;;16.71;100.00;100030.09;1423062;90;21496;-81
2023/06/09 02:45:43;;;;;;;8.33;5.43;;;;;;;16.73;100.00;100033.41;1421661;91;21556;-81
2023/06/09 02:48:10;;;;;;;13.50;6.70;;;;;;;16.76;100.00;100034.86;1429069;90;21370;-83
2023/06/09 02:50:38;;;;;;;10.90;6.00;;;;;;;16.80;100.00;100036.13;1421057;90;21393;-83
2023/06/09 02:53:05;;;;;;;8.17;6.13;;;;;;;16.85;100.00;100039.05;1427444;90;21345;-83
2023/06/09 02:55:32;;;;;;;14.70;5.50;;;;;;;16.90;100.00;100037.43;1431724;90;21405;-83
2023/06/09 02:57:58;;;;;;;13.07;5.43;;;;;;;16.93;100.00;100031.38;1426883;90;22370;-82
2023/06/09 03:00:25;;;;;;;9.67;6.00;;;;;;;16.94;100.00;100028.49;1413208;90;21452;-84
2023/06/09 03:02:51;;;;;;;11.03;5.93;;;;;;;16.97;100.00;100021.41;1425353;90;21518;-83
2023/06/09 03:05:20;;;;;;;15.23;6.83;;;;;;;17.02;100.00;100028.33;1425268;90;21518;-83
2023/06/09 03:07:45;;;;;;;11.23;6.77;;;;;;;17.07;100.00;100031.23;1427554;91;21503;-84
2023/06/09 03:10:11;;;;;;;11.43;5.93;;;;;;;17.12;100.00;100027.45;1445751;89;22240;-83
2023/06/09 03:12:38;;;;;;;11.17;6.80;;;;;;;17.17;100.00;100018.00;1437406;89;21413;-83
2023/06/09 03:15:05;;;;;;;14.67;7.37;;;;;;;17.17;100.00;100024.16;1455478;89;21361;-83
2023/06/09 03:17:31;;;;;;;12.53;7.50;;;;;;;17.22;100.00;100027.59;1449667;88;21399;-81
2023/06/09 03:19:57;;;;;;;12.63;6.60;;;;;;;17.24;100.00;100034.39;1448938;89;21446;-84
2023/06/09 03:22:26;;;;;;;18.87;6.87;;;;;;;17.27;100.00;100031.83;1448809;90;21301;-83
2023/06/09 03:24:52;;;;;;;7.37;6.57;;;;;;;17.28;100.00;100030.80;1448476;90;21420;-82
2023/06/09 03:27:18;;;;;;;8.00;6.27;;;;;;;17.31;100.00;100034.40;1430967;89;21484;-80
2023/06/09 03:29:44;;;;;;;11.10;7.67;;;;;;;17.32;100.00;100037.37;1436217;90;21578;-80
2023/06/09 03:32:10;;;;;;;12.97;7.77;;;;;;;17.35;100.00;100040.50;1449174;89;21431;-80
2023/06/09 03:34:37;;;;;;;14.83;8.87;;;;;;;17.40;100.00;100049.23;1446789;88;21304;-80
2023/06/09 03:37:04;;;;;;;20.60;8.87;;;;;;;17.44;100.00;100040.32;1468369;88;22349;-80
2023/06/09 03:39:30;;;;;;;33.67;8.80;;;;;;;17.48;100.00;100042.89;1466220;88;21529;-80
2023/06/09 03:41:57;;;;;;;26.40;10.10;;;;;;;17.50;100.00;100043.52;1447234;87;21387;-80
2023/06/09 03:44:23;;;;;;;17.57;10.97;;;;;;;17.51;100.00;100040.63;1448829;89;22310;-80
2023/06/09 03:46:49;;;;;;;16.20;10.57;;;;;;;17.55;100.00;100047.73;1451960;89;21386;-80
2023/06/09 03:49:16;;;;;;;21.70;10.23;;;;;;;17.60;100.00;100054.13;1453727;89;21385;-80
2023/06/09 03:51:42;;;;;;;17.03;10.10;;;;;;;17.68;100.00;100056.31;1458825;90;21608;-82
2023/06/09 03:54:08;;;;;;;17.48;10.43;;;;;;;17.73;100.00;100057.87;1445903;89;22178;-81
2023/06/09 03:56:34;;;;;;;16.67;9.48;;;;;;;17.76;100.00;100062.82;1449586;89;21408;-80
2023/06/09 03:59:01;;;;;;;11.23;10.10;;;;;;;17.78;100.00;100060.28;1446500;89;21446;-82
2023/06/09 04:01:27;;;;;;;21.40;9.63;;;;;;;17.83;100.00;100057.50;1451300;90;21372;-81
2023/06/09 04:03:53;;;;;;;25.37;11.40;;;;;;;17.86;100.00;100056.56;1456465;90;22377;-81
2023/06/09 04:06:19;;;;;;;11.35;9.98;;;;;;;17.90;100.00;100056.48;1449407;89;22296;-79
2023/06/09 04:08:46;;;;;;;11.05;9.88;;;;;;;17.94;100.00;100061.73;1450518;89;21371;-80
2023/06/09 04:11:14;;;;;;;12.10;9.33;;;;;;;17.96;100.00;100062.36;1462962;89;21446;-80
2023/06/09 04:13:40;;;;;;;17.60;10.90;;;;;;;17.96;100.00;100066.89;1461149;89;21409;-80
2023/06/09 04:16:06;;;;;;;15.08;10.58;;;;;;;17.97;100.00;100068.02;1459277;89;22369;-80
2023/06/09 04:18:33;;;;;;;21.45;11.12;;;;;;;17.99;100.00;100069.16;1452967;89;21578;-80
2023/06/09 04:20:59;;;;;;;14.87;11.57;;;;;;;18.02;100.00;100068.23;1446235;89;21446;-80
2023/06/09 04:23:27;;;;;;;17.10;12.20;;;;;;;18.01;100.00;100069.27;1457879;89;21298;-80
2023/06/09 04:25:53;;;;;;;20.97;12.65;;;;;;;18.02;100.00;100070.09;1450571;89;21520;-79
2023/06/09 04:28:19;;;;;;;20.37;12.43;;;;;;;18.04;100.00;100076.89;1453827;89;22288;-80
2023/06/09 04:30:47;;;;;;;15.90;10.60;;;;;;;18.08;100.00;100075.14;1447379;89;21401;-80
2023/06/09 04:33:13;;;;;;;13.78;9.83;;;;;;;18.07;100.00;100069.45;1448756;89;22466;-81
2023/06/09 04:35:41;;;;;;;14.33;12.05;;;;;;;18.07;100.00;100074.81;1450178;89;21558;-80
2023/06/09 04:38:09;;;;;;;14.58;11.83;;;;;;;18.11;100.00;100075.55;1448402;89;21357;-81
2023/06/09 04:40:37;;;;;;;14.87;11.25;;;;;;;18.14;100.00;100079.67;1453344;88;21604;-80
2023/06/09 04:43:05;;;;;;;13.20;11.53;;;;;;;18.15;100.00;100079.97;1460038;89;21409;-81
2023/06/09 04:45:34;;;;;;;18.67;10.98;;;;;;;18.18;100.00;100079.55;1449145;89;21379;-80
2023/06/09 04:48:02;;;;;;;15.38;12.28;;;;;;;18.19;100.00;100089.26;1450991;89;21440;-80
2023/06/09 04:50:33;;;;;;;18.05;12.47;;;;;;;18.20;100.00;100086.88;1462349;89;21349;-82
2023/06/09 04:53:03;;;;;;;15.20;13.53;;;;;;;18.19;100.00;100090.60;1451319;89;21482;-83
2023/06/09 04:55:29;;;;;;;13.75;11.55;;;;;;;18.22;100.00;100087.51;1456120;89;22403;-81
2023/06/09 04:57:57;;;;;;;32.28;14.58;;;;;;;18.28;100.00;100079.16;1452865;89;21461;-82
2023/06/09 05:00:26;;;;;;;17.25;12.58;;;;;;;18.28;100.00;100074.63;1450643;88;21371;-80
2023/06/09 05:02:54;;;;;;;17.63;11.60;;;;;;;18.26;100.00;100074.00;1464478;88;22391;-81
2023/06/09 05:05:21;;;;;;;13.08;11.50;;;;;;;18.27;100.00;100067.63;1456134;89;21401;-80
2023/06/09 05:07:47;;;;;;;20.48;12.05;;;;;;;18.29;100.00;100069.56;1453415;88;21350;-81
2023/06/09 05:10:13;;;;;;;14.45;12.33;;;;;;;18.30;100.00;100072.58;1451740;89;22354;-81
2023/06/09 05:12:39;;;;;;;15.75;12.10;;;;;;;18.27;100.00;100064.95;1458472;89;21394;-82
2023/06/09 05:15:08;;;;;;;14.13;11.93;;;;;;;18.20;100.00;100066.80;1462817;89;21416;-82
2023/06/09 05:17:36;;;;;;;18.25;11.03;;;;;;;18.15;100.00;100063.90;1448506;89;21371;-82
2023/06/09 05:20:06;;;;;;;14.58;12.18;;;;;;;18.14;100.00;100062.27;1449120;89;21423;-83
2023/06/09 05:22:33;;;;;;;14.28;11.18;;;;;;;18.18;100.00;100063.00;1463724;89;22392;-82
2023/06/09 05:24:59;;;;;;;20.05;11.03;;;;;;;18.22;100.00;100068.23;1454337;88;21401;-81
2023/06/09 05:27:25;;;;;;;16.42;10.82;;;;;;;18.29;100.00;100063.39;1450224;88;21327;-82
2023/06/09 05:29:51;;;;;;;13.32;10.43;;;;;;;18.31;100.00;100067.52;1454695;89;21424;-82
2023/06/09 05:32:18;;;;;;;18.42;11.40;;;;;;;18.27;100.00;100072.98;1456234;89;21393;-81
2023/06/09 05:34:47;;;;;;;14.38;11.30;;;;;;;18.27;100.00;100066.29;1453911;89;21343;-82
2023/06/09 05:37:15;;;;;;;13.72;9.90;;;;;;;18.33;100.00;100061.97;1450390;89;21476;-81
2023/06/09 05:39:41;;;;;;;17.82;11.63;;;;;;;18.37;100.00;100072.04;1460409;88;21586;-80
2023/06/09 05:42:09;;;;;;;15.65;11.70;;;;;;;18.38;100.00;100077.70;1460624;89;21468;-81
2023/06/09 05:44:36;;;;;;;17.48;10.85;;;;;;;18.41;100.00;100076.46;1459302;89;22155;-80
2023/06/09 05:47:02;;;;;;;14.80;12.40;;;;;;;18.40;100.00;100075.64;1456725;88;21402;-81
2023/06/09 05:49:28;;;;;;;18.45;12.03;;;;;;;18.34;100.00;100085.85;1457353;89;21319;-81
2023/06/09 05:51:55;;;;;;;14.38;12.23;;;;;;;18.29;100.00;100092.86;1452429;89;22223;-81
2023/06/09 05:54:21;;;;;;;20.37;12.18;;;;;;;18.26;100.00;100106.14;1451732;89;21501;-81
2023/06/09 05:56:53;;;;;;;17.80;13.80;;;;;;;18.24;100.00;100105.52;1449574;89;21342;-82
2023/06/09 05:59:20;;;;;;;20.17;11.85;;;;;;;18.17;100.00;100106.04;1452536;89;21422;-83
2023/06/09 06:01:48;;;;;;;9.60;8.60;;;;;;;18.12;100.00;100107.98;1451915;89;22414;-86
2023/06/09 06:04:14;;;;;;;10.85;7.75;;;;;;;18.08;100.00;100114.79;1451702;89;21334;-83
2023/06/09 06:06:41;;;;;;;9.15;8.25;;;;;;;18.08;100.00;100115.31;1453450;89;21564;-81
2023/06/09 06:09:07;;;;;;;10.60;8.90;;;;;;;18.10;100.00;100117.28;1458398;89;21409;-86
2023/06/09 06:11:33;;;;;;;16.15;9.98;;;;;;;18.12;100.00;100127.25;1456856;89;21571;-85
2023/06/09 06:13:59;;;;;;;15.35;9.78;;;;;;;18.13;100.00;100135.61;1452669;89;21588;-84
2023/06/09 06:16:25;;;;;;;17.15;9.50;;;;;;;18.10;100.00;100142.20;1436340;89;21409;-82
2023/06/09 06:18:51;;;;;;;14.78;8.03;;;;;;;18.06;100.00;100140.94;1425949;89;21423;-82
2023/06/09 06:21:18;;;;;;;14.35;8.83;;;;;;;17.99;100.00;100155.66;1450320;89;22310;-82
2023/06/09 06:23:44;;;;;;;11.88;7.90;;;;;;;17.94;100.00;100163.47;1458786;89;21519;-83
2023/06/09 06:26:10;;;;;;;15.75;8.00;;;;;;;17.92;100.00;100162.83;1452919;89;21342;-81
2023/06/09 06:28:38;;;;;;;16.15;6.30;;;;;;;17.86;100.00;100158.81;1461438;89;21655;-85
2023/06/09 06:31:04;;;;;;;8.03;4.47;;;;;;;17.77;100.00;100153.60;1458910;89;22348;-86
2023/06/09 06:33:31;;;;;;;7.97;5.10;;;;;;;17.65;100.00;100145.03;1450891;89;21438;-86
2023/06/09 06:35:58;;;;;;;9.07;4.87;;;;;;;17.48;100.00;100144.55;1451811;88;22480;-85
2023/06/09 06:38:24;;;;;;;13.67;5.90;;;;;;;17.39;100.00;100144.41;1457807;89;21336;-86
2023/06/09 06:40:55;;;;;;;9.00;5.70;;;;;;;17.33;100.00;100151.38;1452770;89;21571;-85
2023/06/09 06:43:21;;;;;;;8.53;5.63;;;;;;;17.32;100.00;100151.05;1433606;90;22367;-90
2023/06/09 06:45:47;;;;;;;7.23;5.50;;;;;;;17.33;100.00;100164.76;1432722;90;21392;-89
2023/06/09 06:48:14;;;;;;;10.30;6.67;;;;;;;17.35;100.00;100165.39;1412320;91;21583;-90
2023/06/09 06:50:40;;;;;;;11.90;6.53;;;;;;;17.37;100.00;100163.32;1439421;91;22449;-90
2023/06/09 06:53:08;;;;;;;12.33;6.30;;;;;;;17.38;100.00;100169.00;1434256;89;21387;-88
2023/06/09 06:55:38;;;;;;;9.07;6.80;;;;;;;17.38;100.00;100173.02;1454608;88;22386;-86
2023/06/09 06:58:04;;;;;;;13.73;5.77;;;;;;;17.41;100.00;100166.45;1454000;89;22243;-86
2023/06/09 07:00:31;;;;;;;6.80;5.00;;;;;;;17.43;100.00;100161.70;1446405;89;21350;-87
2023/06/09 07:02:57;;;;;;;5.97;5.00;;;;;;;17.45;100.00;100155.13;1435641;89;22031;-87
2023/06/09 07:05:23;;;;;;;8.93;5.70;;;;;;;17.41;100.00;100143.19;1435877;90;21502;-86
2023/06/09 07:07:50;;;;;;;8.13;5.37;;;;;;;17.39;100.00;100142.56;1436801;90;22427;-86
2023/06/09 07:10:16;;;;;;;9.97;5.80;;;;;;;17.48;100.00;100145.89;1411294;92;21528;-85
2023/06/09 07:12:42;;;;;;;10.07;6.17;;;;;;;17.57;100.00;100147.36;1421602;92;21333;-85
2023/06/09 07:15:10;;;;;;;7.77;5.23;;;;;;;17.64;100.00;100144.73;1410285;92;22300;-85
2023/06/09 07:17:36;;;;;;;14.70;6.50;;;;;;;17.70;100.00;100139.39;1418349;92;21333;-85
2023/06/09 07:20:03;;;;;;;7.10;5.37;;;;;;;17.81;100.00;100145.53;1422749;92;21370;-84
2023/06/09 07:22:29;;;;;;;8.30;5.60;;;;;;;17.91;100.00;100145.13;1415867;92;21468;-85
2023/06/09 07:24:56;;;;;;;6.33;4.53;;;;;;;17.93;100.00;100128.36;1411242;92;22228;-84
2023/06/09 07:27:22;;;;;;;5.90;4.67;;;;;;;18.00;100.00;100128.36;1418472;92;21377;-86
2023/06/09 07:29:48;;;;;;;7.17;4.85;;;;;;;18.10;100.00;100134.68;1417497;92;21340;-84
2023/06/09 07:32:15;;;;;;;5.17;4.62;;;;;;;18.20;100.00;100141.27;1418429;92;22315;-84
2023/06/09 07:34:41;;;;;;;5.05;4.55;;;;;;;18.28;100.00;100136.23;1417573;92;21362;-90
2023/06/09 07:37:07;;;;;;;5.92;4.85;;;;;;;18.33;100.00;100139.13;1423295;92;21459;-85
2023/06/09 07:39:37;;;;;;;9.43;4.75;;;;;;;18.36;100.00;100142.73;1417538;92;21562;-87
2023/06/09 07:42:05;;;;;;;8.18;5.33;;;;;;;18.39;100.00;100141.51;1410539;92;22213;-86
2023/06/09 07:44:31;;;;;;;6.75;5.33;;;;;;;18.34;100.00;100134.08;1416651;92;21318;-87
2023/06/09 07:46:57;;;;;;;11.70;6.03;;;;;;;18.31;100.00;100122.43;1416364;92;21572;-84
2023/06/09 07:49:23;;;;;;;9.38;5.55;;;;;;;18.33;100.00;100130.27;1418856;92;22276;-88
2023/06/09 07:51:50;;;;;;;8.78;5.10;;;;;;;18.34;100.00;100128.72;1420383;92;21398;-88
2023/06/09 07:54:18;;;;;;;8.13;5.40;;;;;;;18.33;100.00;100133.77;1417161;92;21325;-87
2023/06/09 07:56:49;;;;;;;7.37;5.40;;;;;;;18.35;100.00;100134.89;1415528;92;21555;-89
2023/06/09 07:59:12;;;;;;;6.28;4.87;;;;;;;18.39;100.00;100134.28;1420658;92;21651;-89
2023/06/09 08:01:40;;;;;;;5.78;5.12;;;;;;;18.44;100.00;100139.86;1421835;92;21377;-86
2023/06/09 08:04:06;;;;;;;7.28;4.78;;;;;;;18.47;100.00;100142.13;1416258;92;21355;-87
2023/06/09 08:06:33;;;;;;;9.20;5.17;;;;;;;18.49;100.00;100141.38;1416526;92;21333;-81
2023/06/09 08:08:59;;;;;;;8.08;5.17;;;;;;;18.55;100.00;100145.09;1414918;92;21819;-81
2023/06/09 08:11:26;;;;;;;9.48;4.35;;;;;;;18.62;100.00;100150.47;1418065;92;21377;-82
2023/06/09 08:13:53;;;;;;;9.15;5.92;;;;;;;18.69;100.00;100156.64;1414396;92;21399;-80
2023/06/09 08:16:19;;;;;;;7.35;5.20;;;;;;;18.74;100.00;100155.54;1420235;92;21370;-82
2023/06/09 08:18:45;;;;;;;8.83;5.45;;;;;;;18.81;100.00;100161.70;1423861;92;22127;-82
2023/06/09 08:21:11;;;;;;;8.20;5.87;;;;;;;18.88;100.00;100166.56;1416573;92;21361;-82
2023/06/09 08:23:43;;;;;;;10.82;6.42;;;;;;;18.99;100.00;100168.28;1418391;92;22345;-82
2023/06/09 08:26:11;;;;;;;8.05;5.47;;;;;;;19.10;100.00;100168.98;1414612;92;21400;-82
2023/06/09 08:28:38;;;;;;;11.38;5.87;;;;;;;19.15;100.00;100159.27;1423986;92;21376;-81
2023/06/09 08:31:11;;;;;;;9.08;6.42;;;;;;;19.16;100.00;100164.12;1416482;92;22416;-82
2023/06/09 08:33:36;;;;;;;9.28;5.25;;;;;;;19.21;100.00;100160.81;1418039;92;21466;-81
2023/06/09 08:36:07;;;;;;;13.65;5.70;;;;;;;19.30;100.00;100159.02;1399530;92;21420;-83
2023/06/09 08:38:34;;;;;;;;;;;;;;;19.36;100.00;100160.89;1420706;92;21406;-85
2023/06/09 08:41:08;;;;;;;8.15;5.25;;;;;;;19.40;100.00;100165.30;1413043;92;20848;-81
2023/06/09 08:43:34;;;;;;;10.18;5.15;;;;;;;19.47;100.00;100163.41;1395102;92;21539;-84
2023/06/09 08:46:08;;;;;;;10.35;5.75;;;;;;;19.57;100.00;100158.95;1409637;92;21435;-84
2023/06/09 08:48:38;;;;;;;6.77;5.80;;;;;;;19.67;100.00;100166.56;1411089;92;22381;-89
2023/06/09 08:51:05;;;;;;;4.70;4.12;;;;;;;19.75;100.00;100158.27;1418043;92;21361;-91
2023/06/09 08:53:31;;;;;;;7.80;3.75;;;;;;;19.87;100.00;100151.70;1424911;92;21628;-83
2023/06/09 08:56:00;;;;;;;8.75;3.85;;;;;;;20.04;100.00;100158.21;1401291;92;21624;-88
2023/06/09 08:58:28;;;;;;;7.62;4.65;;;;;;;20.23;100.00;100159.72;1415136;92;22308;-87
2023/06/09 09:00:57;;;;;;;7.20;3.92;;;;;;;20.41;100.00;100159.72;1421674;92;21866;-87
2023/06/09 09:03:25;;;;;;;7.47;3.98;;;;;;;20.61;100.00;100159.59;1419375;92;21550;-84
2023/06/09 09:05:51;;;;;;;5.20;3.40;;;;;;;20.73;100.00;100157.82;1416328;92;21607;-86
2023/06/09 09:08:20;;;;;;;4.60;3.37;;;;;;;20.88;100.00;100162.33;1417319;91;21466;-85
2023/06/09 09:10:46;;;;;;;4.83;3.22;;;;;;;21.06;100.00;100158.86;1349944;92;21303;-86
2023/06/09 09:13:13;;;;;;;3.95;3.00;;;;;;;21.26;100.00;100156.45;1380972;92;21318;-87
2023/06/09 09:15:50;;;;;;;4.30;3.25;;;;;;;21.35;100.00;100146.53;1346559;92;21223;-85
2023/06/09 09:18:19;;;;;;;7.10;2.90;;;;;;;21.41;100.00;100151.56;1360152;92;21671;-85
2023/06/09 09:20:46;;;;;;;6.40;3.52;;;;;;;21.46;100.00;100143.61;1491650;91;21312;-85
2023/06/09 09:23:12;;;;;;;6.08;2.77;;;;;;;21.54;100.00;100146.00;1347073;92;21414;-85
2023/06/09 09:25:38;;;;;;;5.10;3.20;;;;;;;21.70;100.00;100149.14;1347188;92;21252;-84
2023/06/09 09:28:08;;;;;;;3.47;2.98;;;;;;;21.87;100.00;100147.45;1377061;92;21362;-84
2023/06/09 09:30:54;;;;;;;7.92;3.27;;;;;;;22.09;100.00;100143.16;1343287;92;21371;-84
2023/06/09 09:33:24;;;;;;;3.50;3.20;;;;;;;22.37;100.00;100143.62;1418254;92;21421;-84
2023/06/09 09:35:57;;;;;;;4.83;3.22;;;;;;;22.64;100.00;100146.69;1383302;92;21510;-83
2023/06/09 09:38:26;;;;;;;5.55;3.05;;;;;;;22.92;100.00;100148.16;1495294;92;21445;-84
2023/06/09 09:40:55;;;;;;;5.75;3.22;;;;;;;23.10;97.64;100146.41;1344443;92;21282;-85
2023/06/09 09:43:28;;;;;;;5.25;3.47;;;;;;;23.17;96.50;100140.38;1343567;92;21230;-86
2023/06/09 09:45:57;;;;;;;6.33;3.15;;;;;;;23.18;94.99;100139.30;1495300;92;21208;-84
2023/06/09 09:48:24;;;;;;;5.10;3.15;;;;;;;23.20;93.68;100138.55;1344195;92;21281;-84
2023/06/09 09:50:54;;;;;;;5.08;3.60;;;;;;;23.16;93.20;100133.31;1351055;92;21326;-86
2023/06/09 09:53:26;;;;;;;3.72;2.87;;;;;;;23.13;92.95;100124.34;1343326;92;21506;-85
2023/06/09 09:55:56;;;;;;;3.55;2.90;;;;;;;23.22;93.51;100132.39;1495451;92;21216;-85
2023/06/09 09:58:33;;;;;;;4.50;3.30;;;;;;;23.25;92.16;100119.77;1495289;92;21251;-85
2023/06/09 10:01:04;;;;;;;7.35;2.55;;;;;;;23.31;92.83;100119.34;1343336;93;21301;-86
2023/06/09 10:03:32;;;;;;;5.05;2.62;;;;;;;23.37;92.10;100118.37;1349268;92;21473;-85
2023/06/09 10:06:03;;;;;;;3.00;2.40;;;;;;;23.41;90.38;100110.89;1344765;92;22058;-85
2023/06/09 10:08:31;;;;;;;4.10;3.05;;;;;;;23.40;90.07;100114.66;1489487;92;21259;-84
2023/06/09 10:10:59;;;;;;;4.40;2.90;;;;;;;23.39;90.04;100115.73;1345066;92;22262;-86
2023/06/09 10:13:27;;;;;;;4.20;2.45;;;;;;;23.34;89.44;100105.36;1349856;92;21325;-82
2023/06/09 10:15:55;;;;;;;3.77;2.85;;;;;;;23.32;89.01;100109.62;1495259;92;21231;-83
2023/06/09 10:18:23;;;;;;;7.15;2.60;;;;;;;23.31;89.03;100103.95;1344625;92;21341;-85
2023/06/09 10:20:52;;;;;;;5.33;2.55;;;;;;;23.38;89.00;100112.72;1345525;92;21356;-84
2023/06/09 10:23:19;;;;;;;5.92;3.10;;;;;;;23.29;88.33;100103.89;1331578;93;21289;-78
2023/06/09 10:25:50;;;;;;;3.42;2.08;;;;;;;23.30;88.78;100110.92;1350927;92;21274;-84
2023/06/09 10:28:18;;;;;;;5.08;2.25;;;;;;;23.29;88.63;100099.31;1345427;92;21416;-83
2023/06/09 10:30:46;;;;;;;3.20;2.33;;;;;;;23.28;88.34;100103.08;1345373;92;22117;-83
2023/06/09 10:33:31;;;;;;;7.17;2.12;;;;;;;23.20;87.21;100097.52;1416215;92;22081;-85
2023/06/09 10:36:02;;;;;;;4.72;2.40;;;;;;;23.11;87.44;100101.66;1415380;92;21521;-83
2023/06/09 10:38:53;;;;;;;8.20;2.20;;;;;;;23.08;87.88;100106.71;1416818;92;21460;-86
2023/06/09 10:41:34;;;;;;;3.25;2.20;;;;;;;23.01;87.30;100099.26;1345192;92;21333;-85
2023/06/09 10:44:08;;;;;;;3.42;2.02;;;;;;;22.90;86.90;100099.02;1495291;92;21157;-86
2023/06/09 10:46:52;;;;;;;8.13;2.47;;;;;;;22.78;86.52;100104.13;1495302;92;22066;-86
2023/06/09 10:49:36;;;;;;;5.10;2.60;;;;;;;22.70;86.84;100097.20;1342775;92;21481;-83
2023/06/09 10:52:04;;;;;;;2.45;1.98;;;;;;;22.65;86.95;100099.80;1461369;92;22162;-85
2023/06/09 10:54:32;;;;;;;4.90;2.80;;;;;;;22.59;86.59;100096.70;1345333;92;21237;-83
2023/06/09 10:57:00;;;;;;;4.62;1.90;;;;;;;22.52;86.67;100100.31;1345597;92;21472;-84
2023/06/09 10:59:38;;;;;;;6.47;2.10;;;;;;;22.47;86.78;100094.81;1447073;92;21428;-83
2023/06/09 11:02:10;;;;;;;6.83;1.77;;;;;;;22.46;87.11;100097.20;1416825;92;21399;-85
2023/06/09 11:04:49;;;;;;;2.42;1.80;;;;;;;22.45;87.07;100094.22;1416457;92;21543;-83
2023/06/09 11:07:28;;;;;;;2.70;1.57;;;;;;;22.40;86.44;100090.05;1416887;92;21444;-86
2023/06/09 11:10:03;;;;;;;2.37;1.70;;;;;;;22.30;85.22;100088.48;1489858;92;22088;-86
2023/06/09 11:12:32;;;;;;;1.72;1.60;;;;;;;22.18;84.96;100086.27;1434848;92;21385;-84
2023/06/09 11:14:59;;;;;;;2.90;1.62;;;;;;;22.05;84.56;100086.75;1479873;92;21296;-82
2023/06/09 11:17:40;;;;;;;1.75;1.55;;;;;;;21.94;84.59;100085.38;1346659;92;21215;-84
2023/06/09 11:20:11;;;;;;;3.92;1.95;;;;;;;21.83;84.99;100086.98;1495369;92;22058;-85
2023/06/09 11:22:48;;;;;;;3.15;2.15;;;;;;;21.68;85.69;100089.28;1489881;92;21363;-85